Time;durP1;ratioP1;P1;durP2;ratioP2;P2;SDS_P1;SDS_P2;PMS_P1;PMS_P2;Temp;Humidity;BMP_temperature;BMP_pressure;BME280_temperature;BME280_humidity;BME280_pressure;Samples;Min_cycle;Max_cycle;Signal;HPM_P1;HPM_P2
2021/09/23 00:06:31;;;;;;;;;0.00;0.00;;;;;14.84;58.54;101845.81;4886750;29;45544;-82
2021/09/23 00:09:53;;;;;;;;;0.25;0.25;;;;;16.06;58.64;102059.31;4885182;29;45538;-82
2021/09/23 00:23:33;;;;;;;;;;;;;;;;;;;;;
2021/09/23 00:33:02;;;;;;;;;1.00;1.00;;;;;14.53;59.74;101843.75;4890453;28;45449;-83
2021/09/23 00:36:15;;;;;;;;;0.00;0.00;;;;;14.38;60.15;101810.44;4943024;28;45547;-83
2021/09/23 00:40:07;;;;;;;;;;;;;;;;;;;;;
2021/09/23 00:43:20;;;;;;;;;0.50;0.50;;;;;14.88;60.19;101910.50;4882161;29;45783;-83
2021/09/23 00:50:11;;;;;;;;;2.25;1.00;;;;;15.47;60.93;102030.81;4881106;29;45371;-83
2021/09/23 00:53:13;;;;;;;;;;;;;;;;;;;;;
2021/09/23 00:57:01;;;;;;;;;0.25;0.25;;;;;14.12;61.33;101790.06;4886125;29;62457;-83
2021/09/23 01:04:02;;;;;;;;;;;;;;;;;;;;;
2021/09/23 01:06:54;;;;;;;;;;;;;;;;;;;;;
2021/09/23 01:20:51;;;;;;;;;0.00;0.00;;;;;14.68;61.41;101823.78;4848249;29;45404;-83
2021/09/23 01:27:11;;;;;;;;;;;;;;;;;;;;;
2021/09/23 01:30:22;;;;;;;;;0.00;0.00;;;;;15.50;61.60;101959.09;4922697;28;73285;-83
2021/09/23 01:33:41;;;;;;;;;0.00;0.00;;;;;14.02;61.14;101709.66;4923761;28;45469;-83
2021/09/23 01:51:06;;;;;;;;;0.00;0.00;;;;;15.32;61.95;101947.59;4940717;28;45523;-82
2021/09/23 01:54:52;;;;;;;;;;;;;;;;;;;;;
2021/09/23 02:01:57;;;;;;;;;;;;;;;;;;;;;
2021/09/23 02:21:54;;;;;;;;;;;;;;;;;;;;;
2021/09/23 02:29:12;;;;;;;;;0.00;0.00;;;;;14.63;64.29;101856.94;4846713;29;45566;-83
2021/09/23 02:32:26;;;;;;;;;0.00;0.00;;;;;13.62;64.30;101681.34;4901560;28;45534;-83
2021/09/23 02:39:39;;;;;;;;;;;;;;;;;;;;;
2021/09/23 02:43:05;;;;;;;;;1.00;0.00;;;;;14.79;64.30;101920.88;4881824;29;68332;-83
2021/09/23 02:53:02;;;;;;;;;0.00;0.00;;;;;13.83;65.35;101816.78;4981222;28;45393;-81
2021/09/23 02:56:22;;;;;;;;;0.50;0.50;;;;;14.42;65.08;101911.75;4980569;28;45447;-82
2021/09/23 03:03:11;;;;;;;;;;;;;;;;;;;;;
2021/09/23 03:06:06;;;;;;;;;1.25;0.25;;;;;13.68;65.85;101804.41;4945092;28;72405;-83
2021/09/23 03:09:20;;;;;;;;;0.75;0.00;;;;;13.74;65.85;101799.25;4964398;28;45473;-83
2021/09/23 03:12:54;;;;;;;;;1.75;0.00;;;;;14.35;66.04;101898.56;4980731;28;45541;-84
2021/09/23 03:16:09;;;;;;;;;;;;;;;;;;;;;
2021/09/23 03:22:24;;;;;;;;;0.00;0.00;;;;;14.14;66.06;101845.97;5015840;28;45473;-83
2021/09/23 03:25:29;;;;;;;;;;;;;;;;;;;;;
2021/09/23 03:35:53;;;;;;;;;1.00;0.00;;;;;14.28;66.04;101845.25;5021842;28;45626;-83
2021/09/23 03:45:52;;;;;;;;;0.00;0.00;;;;;14.25;65.73;101879.25;4963317;28;45498;-83
2021/09/23 03:48:58;;;;;;;;;0.00;0.00;;;;;14.17;65.99;101874.81;4946694;28;45225;-83
2021/09/23 03:56:12;;;;;;;;;;;;;;;;;;;;;
2021/09/23 03:58:46;;;;;;;;;1.00;1.00;;;;;13.57;66.63;101792.91;4866751;29;73250;-82
2021/09/23 04:01:52;;;;;;;;;;;;;;;;;;;;;
2021/09/23 04:04:28;;;;;;;;;;;;;;;;;;;;;
2021/09/23 04:08:08;;;;;;;;;;;;;;;;;;;;;
2021/09/23 04:15:16;;;;;;;;;1.50;0.25;;;;;13.27;66.47;101746.31;4977836;28;45473;-82
2021/09/23 04:29:11;;;;;;;;;;;;;;;;;;;;;
2021/09/23 04:32:47;;;;;;;;;0.00;0.00;;;;;12.44;67.75;101654.50;4885748;29;64599;-82
2021/09/23 04:35:49;;;;;;;;;;;;;;;;;;;;;
2021/09/23 04:38:47;;;;;;;;;2.25;0.00;;;;;12.24;67.22;101608.06;4885616;29;72277;-82
2021/09/23 04:41:47;;;;;;;;;1.00;1.00;;;;;13.41;67.04;101788.31;4886024;29;45422;-82
2021/09/23 04:48:03;;;;;;;;;0.00;0.00;;;;;13.71;67.09;101816.63;4886651;29;45431;-83
2021/09/23 04:54:51;;;;;;;;;0.75;0.75;;;;;13.10;66.72;101719.91;4881551;29;45425;-83
2021/09/23 05:00:24;;;;;;;;;0.50;0.50;;;;;12.88;66.70;101683.03;4998691;28;45474;-82
2021/09/23 05:07:15;;;;;;;;;1.25;0.00;;;;;13.87;66.95;101889.25;4980434;28;45486;-82
2021/09/23 05:10:18;;;;;;;;;;;;;;;;;;;;;
2021/09/23 05:13:29;;;;;;;;;1.00;1.00;;;;;13.90;67.05;101896.25;5018971;28;73683;-82
2021/09/23 05:20:55;;;;;;;;;;;;;;;;;;;;;
2021/09/23 05:24:09;;;;;;;;;;;;;;;;;;;;;
2021/09/23 05:26:40;;;;;;;;;1.00;1.00;;;;;13.87;67.01;101896.25;5022809;28;75041;-83
2021/09/23 05:33:30;;;;;;;;;0.75;0.75;;;;;13.94;66.87;101922.50;5036432;28;45832;-83
2021/09/23 05:43:49;;;;;;;;;0.50;0.50;;;;;13.24;66.89;101827.31;4934299;28;45435;-82
2021/09/23 05:47:41;;;;;;;;;;;;;;;;;;;;;
2021/09/23 05:50:47;;;;;;;;;0.00;0.00;;;;;12.35;67.48;101682.25;4903668;28;62053;-83
2021/09/23 05:57:06;;;;;;;;;1.50;1.50;;;;;12.90;66.97;101761.44;4946523;28;45672;-82
2021/09/23 06:00:08;;;;;;;;;0.00;0.00;;;;;12.82;67.05;101743.03;4977268;28;45435;-79
2021/09/23 06:02:33;;;;;;;;;0.00;0.00;;;;;13.56;66.46;101883.59;5030894;28;45571;-79
2021/09/23 06:04:59;;;;;;;;;3.25;2.75;;;;;13.79;66.63;101953.72;5015673;28;47216;-80
2021/09/23 06:07:32;;;;;;;;;0.00;0.00;;;;;12.75;66.66;101794.34;5004728;28;45320;-79
2021/09/23 06:10:13;;;;;;;;;0.50;0.50;;;;;13.42;66.97;101896.44;5018835;28;45408;-79
2021/09/23 06:12:45;;;;;;;;;0.00;0.00;;;;;12.41;66.64;101731.94;5042636;28;45351;-80
2021/09/23 06:15:20;;;;;;;;;1.00;1.00;;;;;12.52;66.74;101759.97;5023415;28;48261;-81
2021/09/23 06:17:48;;;;;;;;;0.00;0.00;;;;;13.00;66.81;101819.97;5007375;28;45439;-81
2021/09/23 06:20:20;;;;;;;;;1.75;0.00;;;;;12.72;66.83;101759.41;5001741;28;45412;-81
2021/09/23 06:23:29;;;;;;;;;0.25;0.25;;;;;13.85;66.56;101943.34;5004185;28;45531;-82
2021/09/23 06:26:10;;;;;;;;;0.00;0.00;;;;;12.20;66.29;101648.03;5023620;28;45571;-80
2021/09/23 06:32:06;;;;;;;;;1.50;1.50;;;;;13.96;65.79;101951.31;5041987;28;45530;-82
2021/09/23 06:34:32;;;;;;;;;0.00;0.00;;;;;13.55;65.68;101900.16;5017780;28;45764;-80
2021/09/23 06:36:57;;;;;;;;;1.50;1.00;;;;;12.37;65.81;101709.25;5040738;28;46032;-79
2021/09/23 06:39:22;;;;;;;;;0.75;0.75;;;;;13.35;65.99;101877.16;5003368;28;45484;-80
2021/09/23 06:41:48;;;;;;;;;0.25;0.25;;;;;13.50;65.68;101893.97;5010593;28;45369;-80
2021/09/23 06:44:13;;;;;;;;;0.00;0.00;;;;;13.10;65.75;101827.09;5036339;28;45501;-79
2021/09/23 06:46:39;;;;;;;;;1.00;0.50;;;;;13.77;65.57;101939.72;5040249;28;45529;-78
2021/09/23 06:49:05;;;;;;;;;0.25;0.25;;;;;12.93;65.65;101796.34;5022468;28;45462;-79
2021/09/23 06:51:30;;;;;;;;;2.00;0.00;;;;;13.21;65.78;101824.66;5040970;28;45289;-79
2021/09/23 06:54:06;;;;;;;;;0.00;0.00;;;;;12.99;65.35;101784.22;5042999;28;45257;-79
2021/09/23 06:56:33;;;;;;;;;0.00;0.00;;;;;13.15;65.66;101820.22;5030293;28;46383;-79
2021/09/23 06:58:59;;;;;;;;;0.75;0.75;;;;;13.10;65.43;101772.19;5045559;28;45341;-78
2021/09/23 07:01:24;;;;;;;;;0.75;0.75;;;;;13.07;65.34;101768.69;5037008;28;46456;-80
2021/09/23 07:03:49;;;;;;;;;0.00;0.00;;;;;14.10;65.28;101934.94;5030771;28;45418;-81
2021/09/23 07:06:15;;;;;;;;;0.00;0.00;;;;;14.27;65.05;101962.22;5044451;28;46248;-80
2021/09/23 07:08:40;;;;;;;;;0.00;0.00;;;;;14.08;65.03;101945.38;5035873;28;46449;-81
2021/09/23 07:11:05;;;;;;;;;0.00;0.00;;;;;14.09;65.01;101934.03;5033560;28;45368;-79
2021/09/23 07:13:31;;;;;;;;;5.00;0.00;;;;;14.18;65.03;101955.09;5051419;28;45454;-81
2021/09/23 07:15:59;;;;;;;;;0.00;0.00;;;;;14.14;65.11;101940.22;5046810;28;45624;-80
2021/09/23 07:18:26;;;;;;;;;0.00;0.00;;;;;14.23;64.88;101934.22;5049936;28;45174;-80
2021/09/23 07:20:52;;;;;;;;;0.25;0.25;;;;;14.37;64.96;101949.22;5050215;28;45224;-82
2021/09/23 07:23:18;;;;;;;;;0.00;0.00;;;;;14.27;64.90;101917.69;5039052;28;45579;-79
2021/09/23 07:25:43;;;;;;;;;0.00;0.00;;;;;14.47;64.68;101952.84;5036150;28;47308;-82
2021/09/23 07:28:15;;;;;;;;;0.00;0.00;;;;;14.51;64.47;101950.28;5021819;28;45426;-79
2021/09/23 07:30:40;;;;;;;;;0.00;0.00;;;;;14.52;64.23;101943.31;5037638;28;45536;-79
2021/09/23 07:33:06;;;;;;;;;0.75;0.75;;;;;14.55;64.45;101938.09;5040994;28;45356;-81
2021/09/23 07:35:31;;;;;;;;;0.75;0.75;;;;;14.58;64.37;101932.91;5031244;28;47822;-80
2021/09/23 07:37:57;;;;;;;;;1.25;0.00;;;;;14.61;64.22;101913.69;5049304;28;45290;-82
2021/09/23 07:40:22;;;;;;;;;1.25;1.00;;;;;14.74;63.92;101928.69;5032976;28;45257;-80
2021/09/23 07:42:47;;;;;;;;;1.25;0.00;;;;;14.78;63.59;101924.38;5043092;28;45621;-81
2021/09/23 07:45:13;;;;;;;;;0.00;0.00;;;;;14.53;63.37;101864.72;5049531;28;45341;-82
2021/09/23 07:47:38;;;;;;;;;3.50;1.00;;;;;14.90;63.46;101924.50;5025888;28;46378;-84
2021/09/23 07:50:04;;;;;;;;;1.00;0.50;;;;;14.97;63.40;101933.31;5049129;28;45328;-81
2021/09/23 07:52:30;;;;;;;;;0.00;0.00;;;;;15.10;63.31;101917.69;5050753;28;45402;-79
2021/09/23 07:54:55;;;;;;;;;0.25;0.25;;;;;14.98;63.07;101884.38;5059965;28;46327;-80
2021/09/23 07:57:24;;;;;;;;;0.00;0.00;;;;;15.27;62.72;101920.44;5040389;28;45358;-81
2021/09/23 07:59:49;;;;;;;;;1.00;1.00;;;;;15.28;62.76;101902.09;5045860;28;46361;-80
2021/09/23 08:02:15;;;;;;;;;1.00;1.00;;;;;15.41;62.65;101907.44;5042667;28;45573;-81
2021/09/23 08:04:40;;;;;;;;;1.00;1.00;;;;;15.11;62.27;101853.88;5042843;28;45235;-81
2021/09/23 08:07:05;;;;;;;;;0.00;0.00;;;;;15.45;62.14;101920.59;5048972;28;45206;-83
2021/09/23 08:09:31;;;;;;;;;3.00;1.75;;;;;15.56;61.95;101932.91;5052407;28;45875;-80
2021/09/23 08:11:56;;;;;;;;;0.50;0.50;;;;;15.42;61.43;101903.94;5038808;28;45246;-82
2021/09/23 08:14:22;;;;;;;;;2.50;0.25;;;;;15.35;61.68;101873.28;5041690;28;45533;-81
2021/09/23 08:16:52;;;;;;;;;0.25;0.25;;;;;15.72;61.22;101926.03;5033289;28;45554;-81
2021/09/23 08:19:18;;;;;;;;;0.75;0.75;;;;;15.66;61.28;101892.75;5049627;28;45463;-81
2021/09/23 08:21:44;;;;;;;;;1.00;1.00;;;;;16.01;61.36;101930.56;5043074;28;45718;-82
2021/09/23 08:24:09;;;;;;;;;4.00;0.50;;;;;16.08;60.79;101921.00;5045245;28;46075;-83
2021/09/23 08:26:35;;;;;;;;;1.25;1.25;;;;;16.14;60.54;101920.13;5040100;28;46790;-80
2021/09/23 08:29:01;;;;;;;;;0.00;0.00;;;;;16.12;60.62;101914.88;5043291;28;45282;-80
2021/09/23 08:31:26;;;;;;;;;1.00;0.00;;;;;16.24;60.97;101921.94;5046083;28;45354;-77
2021/09/23 08:33:52;;;;;;;;;0.00;0.00;;;;;16.11;60.54;101909.63;5046698;28;45687;-80
2021/09/23 08:36:17;;;;;;;;;3.00;1.00;;;;;16.00;60.62;101894.69;5038882;28;45401;-81
2021/09/23 08:38:45;;;;;;;;;0.00;0.00;;;;;16.17;60.50;101901.75;5058590;28;45329;-82
2021/09/23 08:41:11;;;;;;;;;1.75;0.00;;;;;16.20;60.22;101893.88;5037747;28;45414;-82
2021/09/23 08:43:36;;;;;;;;;0.50;0.50;;;;;16.20;60.34;101900.00;5040131;28;45374;-80
2021/09/23 08:46:03;;;;;;;;;1.00;1.00;;;;;16.38;60.00;101907.97;5038054;28;45449;-81
2021/09/23 08:48:31;;;;;;;;;2.00;1.75;;;;;16.60;59.97;101929.91;5042631;28;45304;-80
2021/09/23 08:50:56;;;;;;;;;1.25;0.75;;;;;16.62;59.18;101943.94;5038365;28;45458;-81
2021/09/23 08:53:24;;;;;;;;;5.50;3.00;;;;;16.71;59.57;101928.19;5042289;28;46267;-79
2021/09/23 08:55:50;;;;;;;;;1.75;1.75;;;;;16.64;58.69;101901.88;5040560;28;45393;-80
2021/09/23 08:58:15;;;;;;;;;1.00;1.00;;;;;16.86;59.06;101921.19;5036944;28;45688;-80
2021/09/23 09:01:05;;;;;;;;;1.50;1.50;;;;;16.77;58.62;101873.84;5033639;28;45673;-80
2021/09/23 09:03:34;;;;;;;;;2.25;0.00;;;;;16.93;58.36;101917.69;5036406;28;45502;-80
2021/09/23 09:06:07;;;;;;;;;0.00;0.00;;;;;16.95;57.83;101907.19;5040020;28;45466;-80
2021/09/23 09:08:37;;;;;;;;;0.00;0.00;;;;;17.17;58.13;101926.50;5038620;28;45484;-79
2021/09/23 09:11:05;;;;;;;;;4.00;1.25;;;;;17.30;57.65;101935.28;5038989;28;45608;-79
2021/09/23 09:13:39;;;;;;;;;2.25;1.75;;;;;17.27;57.19;101922.13;5036751;28;45415;-79
2021/09/23 09:16:10;;;;;;;;;2.00;0.25;;;;;17.52;57.28;101937.03;5049659;28;46131;-80
2021/09/23 09:18:38;;;;;;;;;2.00;1.50;;;;;17.41;57.20;101897.53;5038948;28;45430;-80
2021/09/23 09:21:09;;;;;;;;;1.00;1.00;;;;;17.62;55.75;101933.50;5040898;28;45377;-79
2021/09/23 09:23:57;;;;;;;;;0.00;0.00;;;;;17.67;56.13;101925.59;5040673;28;46821;-81
2021/09/23 09:26:25;;;;;;;;;0.75;0.75;;;;;17.68;55.76;101924.69;5031706;28;45539;-79
2021/09/23 09:28:54;;;;;;;;;2.00;2.00;;;;;17.66;55.67;101908.91;5050023;28;45358;-80
2021/09/23 09:31:20;;;;;;;;;0.25;0.25;;;;;17.80;55.66;101927.28;5039818;28;45431;-80
2021/09/23 09:33:48;;;;;;;;;3.00;1.00;;;;;17.91;55.59;101918.47;5038566;28;45868;-79
2021/09/23 09:36:50;;;;;;;;;0.00;0.00;;;;;17.99;55.71;101921.97;5033709;28;45565;-78
2021/09/23 09:39:18;;;;;;;;;0.00;0.00;;;;;18.17;55.44;101931.63;5030655;28;45495;-79
2021/09/23 09:41:48;;;;;;;;;1.00;1.00;;;;;18.26;55.49;101908.72;5044069;28;45679;-81
2021/09/23 09:44:14;;;;;;;;;3.00;0.50;;;;;18.23;54.24;101913.13;5056538;28;47109;-80
2021/09/23 09:46:41;;;;;;;;;1.00;1.00;;;;;18.26;54.20;101920.16;5039684;28;45409;-80
2021/09/23 09:49:07;;;;;;;;;0.00;0.00;;;;;18.32;54.08;101900.78;5036505;28;45295;-80
2021/09/23 09:51:49;;;;;;;;;0.00;0.00;;;;;18.53;54.32;101898.91;5040102;28;45662;-81
2021/09/23 09:54:16;;;;;;;;;0.00;0.00;;;;;18.23;53.42;101847.22;5042759;28;45255;-80
2021/09/23 09:56:45;;;;;;;;;0.75;0.75;;;;;18.70;53.17;101904.94;5036535;28;45515;-83
2021/09/23 09:59:15;;;;;;;;;0.00;0.00;;;;;18.80;53.48;101905.75;5040956;28;45458;-79
2021/09/23 10:01:43;;;;;;;;;0.50;0.25;;;;;18.77;52.13;101902.28;5035804;28;45601;-79
2021/09/23 10:04:10;;;;;;;;;1.00;0.00;;;;;18.48;51.62;101883.13;5036282;28;45904;-80
2021/09/23 10:06:39;;;;;;;;;0.75;0.00;;;;;18.53;52.11;101899.78;5036023;28;45634;-82
2021/09/23 10:09:05;;;;;;;;;0.25;0.00;;;;;18.68;52.12;101906.72;5040134;28;45673;-79
2021/09/23 10:11:31;;;;;;;;;0.00;0.00;;;;;18.35;52.05;101835.75;5034582;28;45767;-80
2021/09/23 10:13:58;;;;;;;;;0.00;0.00;;;;;18.72;51.69;101873.28;5039973;28;47075;-78
2021/09/23 10:16:24;;;;;;;;;0.00;0.00;;;;;18.90;51.42;101877.56;5053091;28;45586;-77
2021/09/23 10:18:51;;;;;;;;;0.00;0.00;;;;;18.97;50.79;101891.56;5046648;28;45398;-78
2021/09/23 10:21:17;;;;;;;;;0.50;0.50;;;;;19.02;50.59;101892.38;5050799;28;45626;-77
2021/09/23 10:23:43;;;;;;;;;0.25;0.25;;;;;18.83;51.18;101844.19;5037455;28;45566;-77
2021/09/23 10:26:13;;;;;;;;;0.00;0.00;;;;;18.94;50.41;101863.44;5038241;28;45384;-79
2021/09/23 10:28:45;;;;;;;;;0.00;0.00;;;;;19.15;50.71;101887.03;5044068;28;45243;-78
2021/09/23 10:31:15;;;;;;;;;0.00;0.00;;;;;19.23;50.45;101880.81;5058977;28;45018;-77
2021/09/23 10:33:41;;;;;;;;;0.00;0.00;;;;;19.26;50.56;101857.91;5044204;28;45285;-78
2021/09/23 10:36:08;;;;;;;;;0.00;0.00;;;;;19.49;50.40;101874.41;5065261;28;45507;-77
2021/09/23 10:38:35;;;;;;;;;0.00;0.00;;;;;19.57;49.84;101868.16;5045898;28;45457;-78
2021/09/23 10:41:02;;;;;;;;;0.00;0.00;;;;;19.63;49.71;101868.06;5047868;28;45493;-78
2021/09/23 10:43:28;;;;;;;;;1.00;0.00;;;;;19.66;49.56;101872.47;5041625;28;46312;-78
2021/09/23 10:45:54;;;;;;;;;0.00;0.00;;;;;19.57;49.54;101852.31;5041809;28;46288;-79
2021/09/23 10:48:21;;;;;;;;;0.00;0.00;;;;;19.63;49.12;101849.56;5075711;28;45446;-77
2021/09/23 10:50:48;;;;;;;;;0.00;0.00;;;;;19.59;49.68;101838.19;5057473;28;45433;-78
2021/09/23 10:53:14;;;;;;;;;0.00;0.00;;;;;19.70;48.49;101856.56;5042273;28;47574;-78
2021/09/23 10:55:41;;;;;;;;;0.50;0.00;;;;;19.72;48.75;101830.97;5038854;28;46152;-80
2021/09/23 10:58:08;;;;;;;;;2.00;0.75;;;;;19.88;48.92;101844.03;5041099;28;45397;-79
2021/09/23 11:00:35;;;;;;;;;0.00;0.00;;;;;19.84;49.33;101845.81;5039700;28;45405;-79
2021/09/23 11:03:08;;;;;;;;;0.75;0.00;;;;;19.84;48.89;101829.97;5042398;28;46286;-78
2021/09/23 11:05:36;;;;;;;;;0.00;0.00;;;;;19.51;49.35;101781.97;5037234;28;45394;-81
2021/09/23 11:08:12;;;;;;;;;0.25;0.00;;;;;19.78;49.20;101822.09;5032439;28;45413;-79
2021/09/23 11:10:40;;;;;;;;;0.00;0.00;;;;;19.76;49.19;101818.63;5039623;28;45548;-78
2021/09/23 11:13:05;;;;;;;;;0.50;0.50;;;;;19.77;49.00;101795.69;5040881;28;47434;-84
2021/09/23 11:15:31;;;;;;;;;0.50;0.50;;;;;19.93;48.96;101801.66;5045205;28;45394;-84
2021/09/23 11:18:00;;;;;;;;;0.00;0.00;;;;;19.95;49.46;101797.22;5060220;28;44827;-86
2021/09/23 11:20:29;;;;;;;;;0.00;0.00;;;;;20.06;49.36;101812.97;5061423;28;45454;-83
2021/09/23 11:23:01;;;;;;;;;1.25;0.25;;;;;20.06;48.88;101818.28;5059769;28;47203;-84
2021/09/23 11:25:29;;;;;;;;;1.00;0.00;;;;;19.74;49.10;101757.00;5049208;28;44939;-85
2021/09/23 11:27:56;;;;;;;;;2.00;1.00;;;;;20.04;48.20;101797.16;5044851;28;45454;-85
2021/09/23 11:30:28;;;;;;;;;1.00;1.00;;;;;20.20;48.27;101826.88;5041159;28;45649;-86
2021/09/23 11:33:06;;;;;;;;;1.00;1.00;;;;;20.19;48.48;101822.47;5040274;28;46831;-83
2021/09/23 11:35:37;;;;;;;;;0.00;0.00;;;;;20.16;48.42;101819.00;5052649;28;45362;-84
2021/09/23 11:38:04;;;;;;;;;0.00;0.00;;;;;19.95;48.21;101787.56;5040036;28;45391;-82
2021/09/23 11:40:35;;;;;;;;;0.00;0.00;;;;;19.60;48.25;101749.28;5046581;28;45411;-82
2021/09/23 11:43:03;;;;;;;;;0.00;0.00;;;;;19.87;48.12;101782.38;5055223;28;47842;-81
2021/09/23 11:45:33;;;;;;;;;0.00;0.00;;;;;19.84;48.23;101787.69;5041690;28;45393;-82
2021/09/23 11:48:09;;;;;;;;;0.00;0.00;;;;;20.10;48.44;101812.03;5045662;28;45181;-83
2021/09/23 11:50:37;;;;;;;;;1.25;1.25;;;;;20.09;47.85;101805.00;5039477;28;45671;-84
2021/09/23 11:53:06;;;;;;;;;0.00;0.00;;;;;19.79;47.86;101765.75;5041859;28;46606;-83
2021/09/23 11:55:32;;;;;;;;;0.00;0.00;;;;;19.96;48.29;101805.13;5043803;28;45440;-84
2021/09/23 11:58:07;;;;;;;;;1.00;1.00;;;;;19.48;47.96;101729.19;5048808;28;44799;-82
2021/09/23 12:00:43;;;;;;;;;1.00;0.25;;;;;19.42;47.93;101722.19;5046476;28;45525;-83
2021/09/23 12:03:11;;;;;;;;;0.00;0.00;;;;;19.52;47.77;101722.09;5059536;28;47854;-84
2021/09/23 12:06:00;;;;;;;;;0.25;0.25;;;;;19.26;48.14;101666.09;5064553;28;45517;-81
2021/09/23 12:09:13;;;;;;;;;;;;;;;;;;;;;
2021/09/23 12:15:37;;;;;;;;;1.00;1.00;;;;;20.30;47.53;101797.66;5056269;28;45876;-83
2021/09/23 12:18:29;;;;;;;;;0.00;0.00;;;;;19.46;47.49;101650.00;5065820;28;45409;-82
2021/09/23 12:21:01;;;;;;;;;1.00;1.00;;;;;19.85;47.47;101722.53;5058635;28;45527;-81
2021/09/23 12:23:46;;;;;;;;;0.00;0.00;;;;;19.08;47.80;101595.97;5047703;28;44816;-84
2021/09/23 12:26:36;;;;;;;;;0.00;0.00;;;;;19.93;47.59;101725.91;5056975;28;47096;-79
2021/09/23 12:30:11;;;;;;;;;;;;;;;;;;;;;
2021/09/23 12:32:39;;;;;;;;;0.00;0.00;;;;;19.47;46.78;101611.25;5037436;28;69830;-81
2021/09/23 12:35:19;;;;;;;;;1.50;0.25;;;;;19.57;47.69;101606.72;5039173;28;45464;-79
2021/09/23 12:38:03;;;;;;;;;0.00;0.00;;;;;19.27;47.04;101571.97;5045367;28;45824;-80
2021/09/23 12:40:47;;;;;;;;;0.25;0.25;;;;;19.12;47.63;101552.81;5046042;28;45493;-79
2021/09/23 12:43:30;;;;;;;;;0.00;0.00;;;;;20.15;48.13;101722.97;5051630;28;45520;-79
2021/09/23 12:46:23;;;;;;;;;;;;;;;;;;;;;
2021/09/23 12:49:21;;;;;;;;;0.25;0.25;;;;;20.31;47.59;101733.31;5039400;28;75279;-80
2021/09/23 12:52:11;;;;;;;;;1.00;1.00;;;;;20.63;47.66;101766.25;5039551;28;45347;-81
2021/09/23 12:56:08;;;;;;;;;0.75;0.75;;;;;20.70;47.37;101765.25;5033922;28;45377;-81
2021/09/23 12:58:16;;;;;;;;;0.00;0.00;;;;;20.17;47.88;101668.31;5027844;28;45514;-80
2021/09/23 13:00:46;;;;;;;;;0.00;0.00;;;;;20.40;48.27;101695.25;5043114;28;45977;-82
2021/09/23 13:03:19;;;;;;;;;0.00;0.00;;;;;19.80;48.12;101595.78;5043831;28;45421;-81
2021/09/23 13:05:47;;;;;;;;;0.75;0.75;;;;;20.10;47.57;101638.50;5053004;28;45299;-83
2021/09/23 13:08:24;;;;;;;;;0.00;0.00;;;;;20.67;47.82;101728.25;5042566;28;45525;-84
2021/09/23 13:11:07;;;;;;;;;0.00;0.00;;;;;20.27;48.14;101665.53;5050738;28;45623;-85
2021/09/23 13:14:18;;;;;;;;;0.00;0.00;;;;;20.57;48.28;101713.44;5063218;28;45387;-84
2021/09/23 13:16:43;;;;;;;;;1.25;0.00;;;;;20.33;47.89;101676.84;5045529;28;45444;-83
2021/09/23 13:19:32;;;;;;;;;1.25;1.00;;;;;20.73;48.24;101740.50;5044494;28;45541;-85
2021/09/23 13:22:03;;;;;;;;;0.50;0.00;;;;;19.72;48.07;101580.06;5070392;28;48248;-83
2021/09/23 13:24:40;;;;;;;;;0.00;0.00;;;;;19.67;48.33;101549.34;5042800;28;45390;-82
2021/09/23 13:27:44;;;;;;;;;0.00;0.00;;;;;19.78;47.97;101562.38;5042973;28;45315;-80
2021/09/23 13:37:24;;;;;;;;;;;;;;;;;;;;;
2021/09/23 13:40:17;;;;;;;;;0.00;0.00;;;;;20.57;47.54;101668.50;5043007;28;69197;-84
2021/09/23 13:46:17;;;;;;;;;0.00;0.00;;;;;19.66;47.02;101513.28;5042924;28;46258;-84
2021/09/23 13:48:50;;;;;;;;;0.00;0.00;;;;;19.42;47.83;101474.03;5039087;28;45530;-84
2021/09/23 13:51:32;;;;;;;;;0.00;0.00;;;;;20.50;47.12;101638.66;5037565;28;45487;-83
2021/09/23 13:54:03;;;;;;;;;0.00;0.00;;;;;20.47;47.30;101622.84;5051508;28;45490;-82
2021/09/23 13:56:34;;;;;;;;;0.00;0.00;;;;;20.23;47.28;101558.94;5053181;28;45595;-82
2021/09/23 13:59:07;;;;;;;;;0.75;0.75;;;;;20.47;47.07;101576.13;5056483;28;44653;-83
2021/09/23 14:01:54;;;;;;;;;0.00;0.00;;;;;21.26;46.97;101705.97;5048618;28;45539;-82
2021/09/23 14:04:28;;;;;;;;;0.00;0.00;;;;;21.33;46.54;101682.91;5046598;28;44799;-84
2021/09/23 14:07:09;;;;;;;;;;;;;;;;;;;;;
2021/09/23 14:09:47;;;;;;;;;0.50;0.00;;;;;20.37;46.80;101498.75;5041588;28;73719;-84
2021/09/23 14:13:02;;;;;;;;;0.00;0.00;;;;;20.83;46.31;101582.47;5046969;28;45414;-83
2021/09/23 14:15:33;;;;;;;;;0.75;0.75;;;;;20.43;46.64;101494.25;5049588;28;45487;-83
2021/09/23 14:18:19;;;;;;;;;1.00;0.00;;;;;21.55;46.12;101676.25;5039932;28;45798;-84
2021/09/23 14:20:51;;;;;;;;;1.00;1.00;;;;;21.33;45.97;101624.66;5048852;28;45434;-82
2021/09/23 14:23:22;;;;;;;;;1.50;0.50;;;;;20.92;46.45;101549.69;5034441;28;45495;-81
2021/09/23 14:25:56;;;;;;;;;0.25;0.00;;;;;21.13;46.26;101575.66;5039591;28;45660;-81
2021/09/23 14:28:24;;;;;;;;;0.00;0.00;;;;;20.75;46.50;101498.84;5055687;28;47380;-82
2021/09/23 14:30:59;;;;;;;;;0.00;0.00;;;;;21.39;46.40;101589.22;5055195;28;45776;-81
2021/09/23 14:33:33;;;;;;;;;0.00;0.00;;;;;21.24;46.38;101548.94;5038564;28;45447;-80
2021/09/23 14:36:07;;;;;;;;;1.00;0.00;;;;;21.33;45.73;101546.97;5033848;28;45353;-81
2021/09/23 14:38:33;;;;;;;;;1.50;0.00;;;;;21.56;45.56;101580.84;5036465;28;46395;-81
2021/09/23 14:41:22;;;;;;;;;0.00;0.00;;;;;21.25;45.23;101526.84;5041577;28;45411;-83
2021/09/23 14:43:55;;;;;;;;;0.00;0.00;;;;;21.32;45.30;101509.06;5041600;28;45372;-82
2021/09/23 14:46:21;;;;;;;;;0.00;0.00;;;;;21.02;45.54;101459.44;5053125;28;45411;-84
2021/09/23 14:49:21;;;;;;;;;0.00;0.00;;;;;21.12;45.50;101454.81;5045416;28;45396;-86
2021/09/23 14:55:59;;;;;;;;;0.00;0.00;;;;;21.58;44.35;101482.81;4984137;28;45562;-81
2021/09/23 14:58:51;;;;;;;;;0.00;0.00;;;;;21.98;44.35;101531.25;4980930;28;45389;-85
2021/09/23 15:02:03;;;;;;;;;0.25;0.00;;;;;22.09;43.38;101534.50;5053145;28;46709;-86
2021/09/23 15:05:08;;;;;;;;;2.00;0.25;;;;;22.33;43.73;101555.06;5005934;28;45381;-84
2021/09/23 15:08:14;;;;;;;;;0.00;0.00;;;;;22.90;43.57;101642.81;5078265;28;45316;-86
2021/09/23 15:11:06;;;;;;;;;0.00;0.00;;;;;22.35;43.81;101553.22;4987511;28;45333;-83
2021/09/23 15:17:19;;;;;;;;;0.00;0.00;;;;;22.55;43.78;101581.88;4947253;28;45451;-87
2021/09/23 15:20:41;;;;;;;;;;;;;;;;;;;;;
2021/09/23 15:23:59;;;;;;;;;;;;;;;;;;;;;
2021/09/23 15:40:35;;;;;;;;;1.00;0.00;;;;;23.42;42.35;101456.22;4964852;28;45426;-84
2021/09/23 15:43:13;;;;;;;;;0.00;0.00;;;;;24.01;41.10;101547.22;4975834;28;46110;-81
2021/09/23 15:49:45;;;;;;;;;0.00;0.00;;;;;23.84;41.18;101539.84;4985374;28;45563;-83
2021/09/23 15:52:26;;;;;;;;;0.00;0.00;;;;;23.39;42.16;101554.63;4988974;28;46297;-84
2021/09/23 15:55:49;;;;;;;;;0.00;0.00;;;;;22.78;42.62;101500.72;4989424;28;46285;-84
2021/09/23 15:59:04;;;;;;;;;0.00;0.00;;;;;23.33;43.27;101613.25;4974912;28;45449;-86
2021/09/23 16:01:47;;;;;;;;;1.00;1.00;;;;;22.95;42.70;101618.78;4964958;28;45742;-86
2021/09/23 16:04:13;;;;;;;;;0.00;0.00;;;;;21.49;43.28;101425.63;4984671;28;45582;-85
2021/09/23 16:07:13;;;;;;;;;0.00;0.00;;;;;22.39;43.77;101602.66;4980629;28;45574;-86
2021/09/23 16:10:11;;;;;;;;;0.25;0.25;;;;;21.82;44.73;101560.81;4972492;28;45290;-84
2021/09/23 16:13:33;;;;;;;;;0.00;0.00;;;;;21.83;44.59;101586.41;4983988;28;45434;-87
2021/09/23 16:20:02;;;;;;;;;0.00;0.00;;;;;21.60;45.26;101610.78;4991533;28;45472;-85
2021/09/23 16:22:50;;;;;;;;;0.00;0.00;;;;;21.54;45.45;101629.47;4985317;28;45639;-87
2021/09/23 16:25:31;;;;;;;;;;;;;;;;;;;;;
2021/09/23 16:28:32;;;;;;;;;0.00;0.00;;;;;20.62;45.74;101508.81;4972570;28;73784;-86
2021/09/23 16:31:07;;;;;;;;;0.00;0.00;;;;;20.63;45.87;101521.16;4951608;28;45632;-85
2021/09/23 16:33:38;;;;;;;;;0.00;0.00;;;;;21.19;45.82;101630.22;4976323;28;44877;-85
2021/09/23 16:36:12;;;;;;;;;0.00;0.00;;;;;21.14;46.39;101629.47;4967929;28;45320;-88
2021/09/23 16:38:59;;;;;;;;;;;;;;;;;;;;;
2021/09/23 16:41:25;;;;;;;;;0.00;0.00;;;;;20.28;45.79;101514.81;5035660;28;72068;-88
2021/09/23 16:43:56;;;;;;;;;0.00;0.00;;;;;20.94;45.87;101641.34;5020005;28;45388;-88
2021/09/23 16:46:30;;;;;;;;;0.00;0.00;;;;;20.31;46.23;101549.13;5024735;28;45542;-88
2021/09/23 16:49:23;;;;;;;;;0.00;0.00;;;;;20.06;46.11;101507.28;5016912;28;47797;-88
2021/09/23 16:51:57;;;;;;;;;0.00;0.00;;;;;20.40;46.44;101581.56;5011352;28;45305;-90